Terminal Aerodrome Forecast
Issued by NWS Paducah, KY

Home | Current Version | Previous Version | Text Only | Print | Product List | Glossary On
Versions: 1 2 3 4 5 6 7 8 9 10 11 12 13 14 15 16
000
FTUS43 KPAH 251100
TAFPAH
TAF
KPAH 251120Z 2512/2612 26005KT P6SM SKC
      TEMPO 2512/2516 BKN040
     FM251800 32004KT P6SM SKC
     FM260800 00000KT 3SM BR SKC=

USA.gov is the U.S. government's official web portal to all federal, state and local government web resources and services.